Time;durP1;ratioP1;P1;durP2;ratioP2;P2;SDS_P1;SDS_P2;PMS_P1;PMS_P2;Temp;Humidity;BMP_temperature;BMP_pressure;BME280_temperature;BME280_humidity;BME280_pressure;Samples;Min_cycle;Max_cycle;Signal;HPM_P1;HPM_P2
2023/12/29 00:02:47;;;;;;;;;48.40;39.40;;;;;12.28;100.00;98709.91;6232826;28;96315;-57
2023/12/29 00:05:50;;;;;;;;;49.50;40.25;;;;;12.24;100.00;98696.06;6203514;28;96428;-57
2023/12/29 00:08:53;;;;;;;;;52.20;41.00;;;;;12.20;100.00;98715.69;6207130;28;97271;-57
2023/12/29 00:11:57;;;;;;;;;52.25;40.00;;;;;12.21;100.00;98707.34;6221538;28;96389;-56
2023/12/29 00:15:00;;;;;;;;;48.00;40.00;;;;;12.25;100.00;98713.09;6236543;28;96312;-57
2023/12/29 00:18:04;;;;;;;;;52.50;41.50;;;;;12.22;100.00;98717.09;6227112;28;96381;-57
2023/12/29 00:21:08;;;;;;;;;49.00;39.00;;;;;12.20;100.00;98721.91;6201646;28;96404;-56
2023/12/29 00:24:11;;;;;;;;;51.60;42.20;;;;;12.22;100.00;98717.09;6207171;28;97058;-57
2023/12/29 00:27:16;;;;;;;;;50.00;40.00;;;;;12.26;100.00;98715.56;6209257;28;96648;-57
2023/12/29 00:30:20;;;;;;;;;49.75;41.00;;;;;12.30;100.00;98713.22;6215729;28;96352;-57
2023/12/29 00:33:23;;;;;;;;;55.00;44.00;;;;;12.34;100.00;98703.56;6197301;28;96860;-56
2023/12/29 00:36:26;;;;;;;;;54.00;44.00;;;;;12.38;100.00;98699.31;6193536;28;96740;-57
2023/12/29 00:39:38;;;;;;;;;52.50;42.00;;;;;12.38;100.00;98697.44;6193517;28;97248;-56
2023/12/29 00:42:43;;;;;;;;;49.00;40.00;;;;;12.31;100.00;98696.75;6193979;28;96535;-57
2023/12/29 00:45:46;;;;;;;;;48.20;40.00;;;;;12.15;100.00;98682.09;6215329;28;96296;-57
2023/12/29 00:48:50;;;;;;;;;49.00;39.60;;;;;12.23;100.00;98699.00;6196668;28;96301;-57
2023/12/29 00:51:54;;;;;;;;;50.00;41.00;;;;;12.18;100.00;98688.06;6192430;28;96590;-57
2023/12/29 00:54:57;;;;;;;;;50.00;40.00;;;;;12.11;100.00;98685.50;6212574;28;96787;-57
2023/12/29 00:58:01;;;;;;;;;46.60;38.00;;;;;12.08;100.00;98678.69;6214845;28;96310;-57
2023/12/29 01:01:08;;;;;;;;;52.00;42.00;;;;;12.01;100.00;98683.41;6195391;28;97012;-57
2023/12/29 01:04:11;;;;;;;;;47.80;40.00;;;;;11.97;100.00;98671.38;6172534;28;96641;-57
2023/12/29 01:07:14;;;;;;;;;48.25;40.00;;;;;11.98;100.00;98678.44;6209227;28;97083;-57
2023/12/29 01:10:18;;;;;;;;;51.60;41.60;;;;;11.99;100.00;98680.09;6197683;28;96539;-57
2023/12/29 01:13:22;;;;;;;;;50.20;40.00;;;;;11.98;100.00;98670.34;6216392;28;96495;-57
2023/12/29 01:16:27;;;;;;;;;50.00;41.00;;;;;11.98;100.00;98659.53;6213694;28;96722;-58
2023/12/29 01:19:30;;;;;;;;;51.75;41.00;;;;;11.97;100.00;98676.00;6183883;28;97024;-57
2023/12/29 01:22:33;;;;;;;;;50.60;41.00;;;;;11.95;100.00;98678.09;6208536;28;96919;-56
2023/12/29 01:25:36;;;;;;;;;52.00;41.80;;;;;11.91;100.00;98669.66;6198345;28;96392;-57
2023/12/29 01:28:40;;;;;;;;;52.00;43.00;;;;;11.87;100.00;98664.97;6177913;28;98722;-57
2023/12/29 01:31:44;;;;;;;;;50.00;40.60;;;;;11.83;100.00;98663.75;6185728;28;96819;-57
2023/12/29 01:34:48;;;;;;;;;50.00;40.40;;;;;11.85;100.00;98659.78;6204899;28;96345;-56
2023/12/29 01:37:51;;;;;;;;;49.00;41.00;;;;;11.89;100.00;98638.53;7202211;22;98807;-58
2023/12/29 01:40:55;;;;;;;;;54.00;43.20;;;;;11.85;100.00;98659.78;6265008;27;96395;-58
2023/12/29 01:44:21;;;;;;;;;54.00;43.00;;;;;11.82;100.00;98654.88;6253103;27;96472;-58
2023/12/29 01:47:25;;;;;;;;;49.00;41.00;;;;;11.81;100.00;98657.78;6248682;27;96595;-58
2023/12/29 01:50:29;;;;;;;;;47.00;38.00;;;;;11.78;100.00;98656.38;6264291;28;96397;-58
2023/12/29 01:53:32;;;;;;;;;49.80;41.00;;;;;11.73;100.00;98650.06;6271048;28;96294;-58
2023/12/29 01:56:50;;;;;;;;;48.00;39.00;;;;;11.73;100.00;98644.66;6254213;27;96278;-57
2023/12/29 01:59:55;;;;;;;;;48.60;40.00;;;;;11.72;100.00;98638.41;6251397;28;97081;-58
2023/12/29 02:02:59;;;;;;;;;48.80;39.00;;;;;11.73;100.00;98635.47;6237372;22;98191;-57
2023/12/29 02:06:02;;;;;;;;;47.00;38.00;;;;;11.74;100.00;98633.59;6209834;28;96392;-62
2023/12/29 02:09:06;;;;;;;;;50.20;41.00;;;;;11.74;100.00;98622.78;6211864;28;96755;-63
2023/12/29 02:12:10;;;;;;;;;46.60;38.00;;;;;11.72;100.00;98624.88;6193785;28;96442;-62
2023/12/29 02:15:14;;;;;;;;;50.20;39.60;;;;;11.72;100.00;98622.19;6217649;28;96745;-62
2023/12/29 02:18:21;;;;;;;;;50.20;41.20;;;;;11.56;100.00;98618.31;6200665;28;96711;-62
2023/12/29 02:21:25;;;;;;;;;49.00;39.60;;;;;11.62;100.00;98594.94;6191831;28;96769;-62
2023/12/29 02:24:29;;;;;;;;;50.00;41.00;;;;;11.55;100.00;98602.34;6194370;28;96645;-62
2023/12/29 02:27:45;;;;;;;;;49.80;40.20;;;;;11.52;100.00;98600.13;6218919;28;96351;-61
2023/12/29 02:31:02;;;;;;;;;47.60;38.00;;;;;11.47;100.00;98600.00;6203183;28;99886;-62
2023/12/29 02:34:10;;;;;;;;;51.00;41.00;;;;;11.47;100.00;98598.13;6214214;28;97014;-62
2023/12/29 02:37:15;;;;;;;;;50.60;40.60;;;;;11.45;100.00;98600.22;6220235;28;96969;-61
2023/12/29 02:40:18;;;;;;;;;48.80;39.00;;;;;11.45;100.00;98596.69;6228245;28;96305;-62
2023/12/29 02:43:23;;;;;;;;;49.00;38.80;;;;;11.42;100.00;98589.91;6219922;28;96476;-62
2023/12/29 02:46:26;;;;;;;;;49.00;40.00;;;;;11.41;100.00;98603.63;6214013;28;96323;-61
2023/12/29 02:49:29;;;;;;;;;49.60;39.00;;;;;11.40;100.00;98588.47;6214825;28;96253;-61
2023/12/29 02:52:32;;;;;;;;;45.75;38.50;;;;;11.42;100.00;98587.22;6210886;28;96712;-62
2023/12/29 02:55:35;;;;;;;;;46.25;38.00;;;;;11.45;100.00;98581.31;6178419;28;96445;-62
2023/12/29 02:58:40;;;;;;;;;47.20;39.80;;;;;11.38;100.00;98556.34;6221047;28;96636;-61
2023/12/29 03:01:44;;;;;;;;;50.00;40.00;;;;;11.50;100.00;98569.81;6202284;28;98074;-62
2023/12/29 03:04:47;;;;;;;;;46.00;38.40;;;;;11.51;100.00;98575.00;6232224;28;96287;-62
2023/12/29 03:07:52;;;;;;;;;48.00;39.00;;;;;11.50;100.00;98573.34;6226644;28;96148;-62
2023/12/29 03:10:55;;;;;;;;;49.00;39.00;;;;;11.48;100.00;98566.56;6223277;28;96422;-63
2023/12/29 03:13:59;;;;;;;;;45.00;37.80;;;;;11.43;100.00;98558.34;6210704;28;96418;-62
2023/12/29 03:17:02;;;;;;;;;47.00;39.25;;;;;11.41;100.00;98563.97;6193195;28;97110;-57
2023/12/29 03:20:07;;;;;;;;;47.00;38.00;;;;;11.38;100.00;98566.31;6204170;28;96519;-56
2023/12/29 03:23:10;;;;;;;;;49.00;39.00;;;;;11.17;100.00;98546.13;6217955;28;97234;-56
2023/12/29 03:26:14;;;;;;;;;47.00;39.40;;;;;11.22;100.00;98557.84;6236372;28;96685;-57
2023/12/29 03:29:19;;;;;;;;;48.75;39.50;;;;;11.16;100.00;98552.56;6218553;28;96219;-57
2023/12/29 03:32:23;;;;;;;;;47.00;37.20;;;;;11.10;100.00;98542.69;6230074;28;96973;-58
2023/12/29 03:35:26;;;;;;;;;45.00;36.00;;;;;11.07;100.00;98541.31;6203008;28;96559;-55
2023/12/29 03:38:29;;;;;;;;;44.00;35.50;;;;;11.04;100.00;98536.38;6196810;28;96330;-57
2023/12/29 03:41:32;;;;;;;;;37.60;32.60;;;;;10.96;100.00;98525.09;6214674;28;99606;-56
2023/12/29 03:44:36;;;;;;;;;33.40;30.00;;;;;11.10;100.00;98534.59;6246124;28;96366;-56
2023/12/29 03:47:39;;;;;;;;;28.00;25.60;;;;;11.15;100.00;98526.63;6229963;28;96431;-57
2023/12/29 03:50:43;;;;;;;;;29.00;27.50;;;;;11.24;100.00;98533.31;6223589;28;97153;-57
2023/12/29 03:53:46;;;;;;;;;27.40;25.00;;;;;11.38;100.00;98529.34;6228916;28;97397;-56
2023/12/29 03:56:49;;;;;;;;;18.00;16.00;;;;;11.27;100.00;98509.41;6231801;28;97365;-56
2023/12/29 03:59:54;;;;;;;;;17.80;16.00;;;;;11.55;100.00;98522.16;6206590;28;96447;-57
2023/12/29 04:02:57;;;;;;;;;12.00;11.20;;;;;11.66;100.00;98521.34;6214274;28;96588;-57
2023/12/29 04:06:00;;;;;;;;;13.80;12.80;;;;;11.82;100.00;98527.91;6218150;28;97073;-56
2023/12/29 04:09:04;;;;;;;;;11.00;10.00;;;;;11.98;100.00;98519.06;6217135;28;97102;-56
2023/12/29 04:12:08;;;;;;;;;10.00;9.60;;;;;12.05;100.00;98527.84;6215637;28;96280;-56
2023/12/29 04:15:12;;;;;;;;;7.80;7.80;;;;;12.18;100.00;98525.91;6219713;28;96376;-56
2023/12/29 04:18:15;;;;;;;;;9.00;8.00;;;;;12.25;100.00;98515.78;6219372;28;97791;-57
2023/12/29 04:21:19;;;;;;;;;8.00;8.00;;;;;12.40;100.00;98513.38;6219023;28;96292;-56
2023/12/29 04:24:22;;;;;;;;;5.00;5.00;;;;;12.51;100.00;98526.81;6198841;28;96343;-56
2023/12/29 04:27:25;;;;;;;;;11.00;10.00;;;;;12.61;100.00;98514.56;6215685;28;96904;-61
2023/12/29 04:30:29;;;;;;;;;9.00;8.00;;;;;12.75;100.00;98521.31;6210170;28;96252;-61
2023/12/29 04:33:32;;;;;;;;;5.60;5.60;;;;;12.85;100.00;98518.78;6198959;28;97157;-62
2023/12/29 04:36:36;;;;;;;;;10.00;9.40;;;;;12.90;100.00;98518.88;6213786;28;96546;-61
2023/12/29 04:39:39;;;;;;;;;8.50;8.50;;;;;12.95;100.00;98514.31;6180865;28;96407;-63
2023/12/29 04:42:42;;;;;;;;;11.40;10.40;;;;;12.98;100.00;98513.84;6213140;28;97066;-62
2023/12/29 04:45:47;;;;;;;;;9.20;9.00;;;;;13.06;100.00;98504.50;6209646;28;96364;-62
2023/12/29 04:48:51;;;;;;;;;7.75;7.75;;;;;13.14;100.00;98509.53;6201400;28;96305;-63
2023/12/29 04:51:54;;;;;;;;;9.00;7.33;;;;;13.20;100.00;98492.28;6198921;28;96317;-62
2023/12/29 04:54:57;;;;;;;;;8.00;7.60;;;;;13.30;100.00;98503.28;6195760;28;96558;-62
2023/12/29 04:58:00;;;;;;;;;7.00;6.50;;;;;13.39;100.00;98492.81;6216441;28;96951;-62
2023/12/29 05:01:05;;;;;;;;;6.60;6.60;;;;;13.40;100.00;98499.88;6209055;28;96568;-61
2023/12/29 05:04:08;;;;;;;;;7.00;6.00;;;;;13.49;100.00;98501.09;6218904;28;97496;-62
2023/12/29 05:07:12;;;;;;;;;3.80;3.80;;;;;13.55;100.00;98499.28;6222131;28;96472;-62
2023/12/29 05:10:15;;;;;;;;;5.00;5.00;;;;;13.60;100.00;98492.06;6226096;28;96826;-61
2023/12/29 05:13:19;;;;;;;;;4.00;3.00;;;;;13.61;100.00;98495.59;6208389;28;97138;-62
2023/12/29 05:16:24;;;;;;;;;6.80;6.80;;;;;13.65;100.00;98500.25;6193123;28;97554;-62
2023/12/29 05:19:27;;;;;;;;;8.00;8.00;;;;;13.67;100.00;98498.13;6192817;28;98570;-61
2023/12/29 05:22:30;;;;;;;;;7.20;6.00;;;;;13.77;100.00;98486.59;6203849;28;96403;-62
2023/12/29 05:25:33;;;;;;;;;5.80;5.20;;;;;13.85;100.00;98495.09;6237185;28;96630;-63
2023/12/29 05:28:36;;;;;;;;;7.00;6.60;;;;;13.97;100.00;98503.09;6238889;28;97561;-63
2023/12/29 05:31:41;;;;;;;;;9.00;8.00;;;;;14.06;100.00;98498.06;6206303;28;96921;-62
2023/12/29 05:34:44;;;;;;;;;5.60;5.60;;;;;14.08;100.00;98502.13;6216747;28;96640;-61
2023/12/29 05:37:47;;;;;;;;;7.00;6.00;;;;;14.18;100.00;98496.81;6217829;28;96553;-61
2023/12/29 05:40:51;;;;;;;;;8.40;8.00;;;;;14.25;100.00;98502.88;6208862;28;96567;-62
2023/12/29 05:43:54;;;;;;;;;13.60;13.20;;;;;14.24;100.00;98495.00;6220078;28;96398;-63
2023/12/29 05:46:58;;;;;;;;;17.00;15.80;;;;;14.20;100.00;98499.28;6209120;28;96759;-62
2023/12/29 05:50:02;;;;;;;;;15.00;14.00;;;;;14.14;100.00;98503.00;6198811;28;98974;-61
2023/12/29 05:53:06;;;;;;;;;13.00;12.00;;;;;14.02;100.00;98508.59;6219342;28;96484;-62
2023/12/29 05:56:10;;;;;;;;;13.00;11.75;;;;;14.04;100.00;98521.88;6235005;28;96289;-63
2023/12/29 05:59:13;;;;;;;;;11.20;11.20;;;;;14.01;100.00;98509.66;6211040;28;96902;-62
2023/12/29 06:02:18;;;;;;;;;13.00;11.00;;;;;14.02;100.00;98511.28;6205366;28;96429;-63
2023/12/29 06:05:21;;;;;;;;;9.20;9.20;;;;;14.03;100.00;98509.38;6223387;28;96379;-63
2023/12/29 06:08:24;;;;;;;;;9.00;8.50;;;;;14.02;100.00;98511.28;6229437;28;96565;-59
2023/12/29 06:11:27;;;;;;;;;10.00;9.40;;;;;14.03;100.00;98512.09;6200135;28;96307;-61
2023/12/29 06:14:30;;;;;;;;;9.50;9.00;;;;;14.05;100.00;98516.19;6217599;28;96761;-62
2023/12/29 06:17:35;;;;;;;;;10.60;9.60;;;;;14.05;100.00;98505.34;6218631;28;98432;-62
2023/12/29 06:20:38;;;;;;;;;10.00;9.75;;;;;14.04;100.00;98506.41;6212604;28;96280;-62
2023/12/29 06:23:41;;;;;;;;;9.00;7.33;;;;;14.07;100.00;98507.81;6195766;28;97158;-62
2023/12/29 06:26:45;;;;;;;;;10.67;10.00;;;;;14.06;100.00;98508.88;6200125;28;97379;-61
2023/12/29 06:29:48;;;;;;;;;10.00;10.00;;;;;14.08;100.00;98502.13;6212610;28;96349;-63
2023/12/29 06:32:52;;;;;;;;;9.60;7.60;;;;;14.09;100.00;98505.66;6201181;28;96865;-62
2023/12/29 06:35:56;;;;;;;;;8.00;8.00;;;;;14.15;100.00;98505.47;6202726;28;98726;-61
2023/12/29 06:38:59;;;;;;;;;8.60;7.00;;;;;14.19;100.00;98500.34;6203031;28;96323;-62
2023/12/29 06:42:02;;;;;;;;;9.00;8.00;;;;;14.21;100.00;98499.03;6213254;28;96370;-61
2023/12/29 06:45:08;;;;;;;;;8.75;7.00;;;;;14.21;100.00;98506.34;6214892;28;96367;-56
2023/12/29 06:48:12;;;;;;;;;6.00;5.60;;;;;14.19;100.00;98514.72;6231877;28;96385;-57
2023/12/29 06:51:19;;;;;;;;;7.40;7.00;;;;;14.22;100.00;98518.84;6220765;28;96442;-57
2023/12/29 06:54:22;;;;;;;;;8.00;7.00;;;;;14.18;100.00;98510.38;6200748;28;96437;-57
2023/12/29 06:57:25;;;;;;;;;7.00;6.50;;;;;14.28;100.00;98505.06;6198480;28;96264;-57
2023/12/29 07:00:29;;;;;;;;;8.50;8.00;;;;;14.30;100.00;98510.25;6198408;28;96259;-57
2023/12/29 07:03:33;;;;;;;;;8.00;8.00;;;;;14.31;100.00;98522.75;6213164;28;96417;-56
2023/12/29 07:06:37;;;;;;;;;9.00;8.00;;;;;14.33;100.00;98524.09;6203733;28;96696;-57
2023/12/29 07:09:40;;;;;;;;;8.00;8.00;;;;;14.41;100.00;98516.63;6215190;28;97155;-57
2023/12/29 07:12:44;;;;;;;;;8.00;7.40;;;;;14.39;100.00;98519.59;6197370;28;96408;-56
2023/12/29 07:15:48;;;;;;;;;8.75;8.25;;;;;14.43;100.00;98515.28;6196943;28;96371;-57
2023/12/29 07:18:52;;;;;;;;;13.00;12.00;;;;;14.43;100.00;98522.59;6211150;28;96243;-56
2023/12/29 07:21:56;;;;;;;;;11.00;10.00;;;;;14.45;100.00;98515.06;6205330;28;96883;-57
2023/12/29 07:24:59;;;;;;;;;11.00;11.00;;;;;14.44;100.00;98516.94;6199142;28;96379;-57
2023/12/29 07:28:02;;;;;;;;;11.00;11.00;;;;;14.31;100.00;98507.28;6205531;28;97055;-56
2023/12/29 07:31:07;;;;;;;;;12.40;10.60;;;;;14.28;100.00;98509.66;6219704;28;96357;-57
2023/12/29 07:34:12;;;;;;;;;11.00;11.00;;;;;14.36;100.00;98525.53;6214786;28;96330;-57
2023/12/29 07:37:15;;;;;;;;;9.60;9.00;;;;;14.46;100.00;98520.22;6212253;28;96399;-56
2023/12/29 07:40:18;;;;;;;;;10.75;9.75;;;;;14.47;100.00;98518.31;6201588;28;96336;-56
2023/12/29 07:43:22;;;;;;;;;11.80;10.00;;;;;14.59;100.00;98524.41;6206953;28;96813;-57
2023/12/29 07:46:26;;;;;;;;;10.00;10.00;;;;;14.72;100.00;98511.25;6179874;28;98399;-56
2023/12/29 07:49:30;;;;;;;;;12.00;11.00;;;;;14.85;100.00;98510.03;6216192;28;97329;-57
2023/12/29 07:52:34;;;;;;;;;8.00;7.60;;;;;14.90;100.00;98507.34;6196060;28;96375;-56
2023/12/29 07:55:39;;;;;;;;;9.00;8.00;;;;;14.99;100.00;98507.69;6207060;28;96426;-61
2023/12/29 07:58:42;;;;;;;;;6.00;6.00;;;;;15.13;100.00;98512.41;6193428;28;96322;-61
2023/12/29 08:01:49;;;;;;;;;5.00;4.60;;;;;15.46;100.00;98510.44;6205718;28;96494;-62
2023/12/29 08:04:55;;;;;;;;;3.00;3.00;;;;;17.29;100.00;98526.25;6211973;28;96326;-62
2023/12/29 08:07:58;;;;;;;;;4.00;4.00;;;;;19.71;100.00;98526.88;6207340;28;96765;-61
2023/12/29 08:11:01;;;;;;;;;4.50;3.50;;;;;21.51;100.00;98523.00;6209395;28;97123;-61
2023/12/29 08:14:05;;;;;;;;;6.00;5.00;;;;;22.71;100.00;98516.22;6209458;28;96586;-62
2023/12/29 08:17:08;;;;;;;;;5.40;4.00;;;;;24.26;100.00;98522.69;6209392;28;96657;-61
2023/12/29 08:20:13;;;;;;;;;5.00;5.00;;;;;25.27;100.00;98527.84;6200968;28;96274;-61
2023/12/29 08:23:16;;;;;;;;;5.00;4.75;;;;;26.59;100.00;98526.72;6218930;28;96500;-61
2023/12/29 08:26:20;;;;;;;;;6.00;4.80;;;;;28.08;95.58;98525.84;6216166;28;96894;-61
2023/12/29 08:29:25;;;;;;;;;7.00;5.00;;;;;28.98;88.11;98520.84;6210247;28;96363;-62
2023/12/29 08:32:28;;;;;;;;;6.25;6.00;;;;;28.99;87.08;98524.41;6206810;28;96440;-61
2023/12/29 08:35:33;;;;;;;;;5.60;5.00;;;;;27.63;88.68;98529.47;6200777;28;96459;-61
2023/12/29 08:38:36;;;;;;;;;6.00;5.00;;;;;27.09;93.97;98529.47;6208730;28;96448;-61
2023/12/29 08:41:39;;;;;;;;;5.40;5.00;;;;;28.64;85.38;98526.88;6205254;28;96523;-62
2023/12/29 08:44:42;;;;;;;;;5.00;5.00;;;;;30.76;80.05;98534.69;6189406;28;96971;-62
2023/12/29 08:47:45;;;;;;;;;5.80;5.20;;;;;32.23;72.74;98538.09;6209441;28;97670;-61
2023/12/29 08:50:50;;;;;;;;;5.20;4.20;;;;;32.81;69.29;98535.00;6220229;28;96509;-62
2023/12/29 08:53:55;;;;;;;;;6.00;5.00;;;;;32.15;69.62;98534.38;6210753;28;96382;-62
2023/12/29 08:56:58;;;;;;;;;5.00;5.00;;;;;32.38;71.20;98531.56;6213056;28;97773;-62
2023/12/29 09:00:01;;;;;;;;;6.00;6.00;;;;;32.11;68.85;98535.47;6218153;28;96316;-61
2023/12/29 09:03:05;;;;;;;;;5.00;4.00;;;;;30.90;71.72;98538.59;6212983;28;96992;-61
2023/12/29 09:06:10;;;;;;;;;5.00;5.00;;;;;30.93;73.03;98540.69;6197865;28;97055;-58
2023/12/29 09:09:13;;;;;;;;;4.40;4.00;;;;;31.51;71.97;98534.34;6207326;28;99820;-58
2023/12/29 09:12:16;;;;;;;;;4.00;4.00;;;;;29.68;72.67;98546.25;6220897;28;97008;-58
2023/12/29 09:15:21;;;;;;;;;5.00;4.80;;;;;27.95;79.13;98533.38;6221988;28;96550;-59
2023/12/29 09:18:24;;;;;;;;;4.00;4.00;;;;;26.30;86.67;98535.03;6220155;28;96327;-57
2023/12/29 09:21:29;;;;;;;;;4.20;4.20;;;;;24.79;93.84;98536.25;6219240;28;96136;-57
2023/12/29 09:24:32;;;;;;;;;3.40;3.40;;;;;23.50;100.00;98513.78;6229627;28;96349;-58
2023/12/29 09:27:35;;;;;;;;;4.00;4.00;;;;;23.00;100.00;98524.06;6221304;28;96813;-58
2023/12/29 09:30:38;;;;;;;;;5.20;4.00;;;;;22.43;100.00;98523.66;6223284;28;96309;-57
2023/12/29 09:33:41;;;;;;;;;5.00;4.00;;;;;21.90;100.00;98517.88;6224111;28;96384;-57
2023/12/29 09:36:46;;;;;;;;;6.40;5.40;;;;;21.46;100.00;98526.66;6214904;28;96297;-58
2023/12/29 09:39:49;;;;;;;;;5.80;5.00;;;;;21.00;100.00;98501.09;6219539;28;98251;-56
2023/12/29 09:42:52;;;;;;;;;5.00;5.00;;;;;20.94;100.00;98499.56;6216507;28;96824;-58
2023/12/29 09:45:57;;;;;;;;;6.00;5.50;;;;;21.96;100.00;98504.91;6240495;28;96393;-58
2023/12/29 09:49:04;;;;;;;;;4.00;4.00;;;;;22.91;100.00;98498.47;6224544;28;97485;-59
2023/12/29 09:52:12;;;;;;;;;6.00;5.50;;;;;23.54;100.00;98486.44;6226385;28;96377;-57
2023/12/29 09:55:15;;;;;;;;;4.25;3.75;;;;;23.90;100.00;98478.00;6223465;28;96538;-57
2023/12/29 09:58:22;;;;;;;;;5.00;5.00;;;;;24.18;99.21;98479.44;6222095;28;96403;-58
2023/12/29 10:01:29;;;;;;;;;4.00;4.00;;;;;24.48;97.74;98489.50;6223460;28;96260;-58
2023/12/29 10:04:35;;;;;;;;;4.00;4.00;;;;;24.29;95.73;98477.97;6239116;28;96502;-60
2023/12/29 10:07:41;;;;;;;;;4.00;4.00;;;;;24.02;97.47;98469.94;6231348;28;96246;-58
2023/12/29 10:10:44;;;;;;;;;2.40;2.40;;;;;23.53;99.43;98468.28;6253002;28;96234;-57
2023/12/29 10:13:51;;;;;;;;;4.00;3.60;;;;;23.30;100.00;98464.75;6253188;28;96459;-56
2023/12/29 10:17:00;;;;;;;;;4.00;4.00;;;;;23.43;100.00;98460.28;6242763;28;96396;-60
2023/12/29 10:20:12;;;;;;;;;4.00;3.60;;;;;23.53;99.20;98451.78;6220820;28;96319;-60
2023/12/29 10:23:21;;;;;;;;;5.00;4.40;;;;;23.44;99.88;98459.16;6229087;28;96917;-61
2023/12/29 10:26:25;;;;;;;;;3.00;3.00;;;;;23.46;100.00;98456.91;6211308;28;96663;-63
2023/12/29 10:29:28;;;;;;;;;3.00;3.00;;;;;23.65;99.31;98458.31;6210794;28;96888;-62
2023/12/29 10:32:31;;;;;;;;;3.00;2.50;;;;;23.78;98.38;98450.28;6198623;28;96626;-62
2023/12/29 10:35:37;;;;;;;;;3.00;2.00;;;;;23.76;97.74;98442.31;6153899;28;96876;-63
2023/12/29 10:38:42;;;;;;;;;3.60;3.00;;;;;24.16;95.91;98448.59;6169065;28;98582;-63
2023/12/29 10:41:45;;;;;;;;;3.00;3.00;;;;;24.15;96.71;98434.00;6169641;28;96887;-63
2023/12/29 10:45:04;;;;;;;;;3.00;3.00;;;;;23.90;96.37;98455.97;6193937;28;96718;-63
2023/12/29 10:48:08;;;;;;;;;3.50;3.50;;;;;23.33;97.85;98440.16;6214305;28;96352;-62
2023/12/29 10:51:12;;;;;;;;;3.20;3.00;;;;;23.01;100.00;98434.97;6202429;28;96163;-62
2023/12/29 10:54:23;;;;;;;;;4.00;4.00;;;;;22.76;100.00;98432.84;6212993;28;96757;-63
2023/12/29 10:57:26;;;;;;;;;5.40;5.00;;;;;22.14;100.00;98429.06;6239584;28;96309;-63
2023/12/29 11:00:30;;;;;;;;;4.00;4.00;;;;;21.90;100.00;98430.06;6224363;28;96761;-62
2023/12/29 11:03:33;;;;;;;;;5.00;5.00;;;;;21.47;100.00;98428.75;6212846;28;97133;-62
2023/12/29 11:06:47;;;;;;;;;4.00;4.00;;;;;21.27;100.00;98432.69;6218856;28;97614;-63
2023/12/29 11:09:52;;;;;;;;;4.00;4.00;;;;;20.68;100.00;98427.91;6240161;28;96416;-62
2023/12/29 11:12:58;;;;;;;;;5.50;5.00;;;;;20.20;100.00;98438.19;6220405;28;98826;-63
2023/12/29 11:16:02;;;;;;;;;5.00;5.00;;;;;19.80;100.00;98423.94;6225174;27;96514;-62
2023/12/29 11:19:09;;;;;;;;;5.40;3.40;;;;;19.50;100.00;98424.28;6226807;28;96339;-63
2023/12/29 11:22:12;;;;;;;;;5.60;5.00;;;;;19.31;100.00;98421.47;6234780;28;96482;-62
2023/12/29 11:25:17;;;;;;;;;5.25;4.25;;;;;19.19;100.00;98415.59;6202446;28;96612;-60
2023/12/29 11:28:20;;;;;;;;;7.00;6.40;;;;;19.42;100.00;98417.53;6235660;28;96293;-59
2023/12/29 11:31:24;;;;;;;;;6.00;6.00;;;;;19.52;100.00;98424.00;6236238;28;96565;-59
2023/12/29 11:34:36;;;;;;;;;6.00;5.20;;;;;19.35;100.00;98413.50;6237758;28;96794;-59
2023/12/29 11:38:04;;;;;;;;;5.00;5.00;;;;;19.20;100.00;98424.59;6250795;28;96418;-59
2023/12/29 11:41:14;;;;;;;;;5.00;5.00;;;;;18.99;100.00;98413.06;6228642;28;96634;-60
2023/12/29 11:44:25;;;;;;;;;5.00;5.00;;;;;18.76;100.00;98417.38;6241408;28;96421;-59
2023/12/29 11:47:39;;;;;;;;;6.00;6.00;;;;;18.67;100.00;98412.81;6222065;28;96891;-61
2023/12/29 11:50:43;;;;;;;;;6.00;6.00;;;;;18.57;100.00;98414.47;6236713;28;96902;-60
2023/12/29 11:53:47;;;;;;;;;5.40;5.40;;;;;18.51;100.00;98409.34;6214183;28;96663;-60
2023/12/29 11:56:53;;;;;;;;;4.50;4.50;;;;;18.57;100.00;98405.47;6238121;28;96337;-60
2023/12/29 11:59:56;;;;;;;;;4.00;4.00;;;;;18.87;100.00;98404.41;6240959;28;96282;-59
2023/12/29 12:02:59;;;;;;;;;7.00;6.00;;;;;19.08;100.00;98396.84;6235095;28;96838;-60
2023/12/29 12:06:03;;;;;;;;;5.80;5.00;;;;;19.32;100.00;98394.94;6239364;28;96533;-59
2023/12/29 12:09:18;;;;;;;;;6.00;5.20;;;;;19.55;100.00;98412.50;6257944;28;96232;-61
2023/12/29 12:12:41;;;;;;;;;5.00;5.00;;;;;19.41;100.00;98415.88;6256773;28;96393;-61
2023/12/29 12:15:45;;;;;;;;;5.80;5.80;;;;;19.62;100.00;98421.16;6233358;28;96128;-59
2023/12/29 12:18:49;;;;;;;;;5.00;4.00;;;;;19.48;100.00;98412.84;6232063;28;96484;-60
2023/12/29 12:21:55;;;;;;;;;6.00;6.00;;;;;19.52;100.00;98413.88;6231333;28;96786;-60
2023/12/29 12:25:00;;;;;;;;;5.00;5.00;;;;;19.74;100.00;98399.69;6252703;28;96260;-59
2023/12/29 12:28:08;;;;;;;;;7.00;7.00;;;;;19.99;100.00;98410.28;6245398;27;96501;-59
2023/12/29 12:31:14;;;;;;;;;6.75;5.75;;;;;20.17;100.00;98408.69;6231679;28;97657;-58
2023/12/29 12:34:17;;;;;;;;;7.80;6.80;;;;;20.26;100.00;98388.56;6236944;28;96233;-60
2023/12/29 12:37:22;;;;;;;;;7.00;6.00;;;;;20.33;100.00;98399.16;6214106;28;96540;-62
2023/12/29 12:40:27;;;;;;;;;6.00;6.00;;;;;20.17;100.00;98408.69;6218685;28;96287;-62
2023/12/29 12:43:34;;;;;;;;;6.00;6.00;;;;;20.05;100.00;98408.28;6219789;28;96352;-62
2023/12/29 12:46:45;;;;;;;;;7.20;6.60;;;;;20.00;100.00;98411.09;6191369;28;98672;-61
2023/12/29 12:49:49;;;;;;;;;7.00;6.50;;;;;19.91;100.00;98410.94;6211363;28;96413;-62
2023/12/29 12:52:52;;;;;;;;;8.60;7.60;;;;;19.67;100.00;98410.16;6201577;28;96925;-62
2023/12/29 12:55:56;;;;;;;;;7.00;6.25;;;;;19.59;100.00;98413.53;6218634;28;96745;-62
2023/12/29 12:59:03;;;;;;;;;8.40;7.60;;;;;19.54;100.00;98408.94;6237465;28;96298;-62
2023/12/29 13:02:09;;;;;;;;;7.00;6.75;;;;;19.63;100.00;98418.13;6222774;28;97526;-67
2023/12/29 13:05:14;;;;;;;;;8.00;7.40;;;;;19.72;100.00;98407.34;6193813;28;98704;-61
2023/12/29 13:08:18;;;;;;;;;7.20;6.80;;;;;19.83;100.00;98403.41;6215548;28;96857;-62
2023/12/29 13:11:36;;;;;;;;;9.00;8.00;;;;;19.90;100.00;98401.91;6214327;28;96746;-62
2023/12/29 13:14:41;;;;;;;;;7.60;7.00;;;;;20.04;100.00;98409.38;6210049;28;96610;-62
2023/12/29 13:17:51;;;;;;;;;9.00;8.00;;;;;20.07;100.00;98403.34;6192539;28;98411;-62
2023/12/29 13:20:54;;;;;;;;;7.33;7.33;;;;;20.04;100.00;98412.13;6212523;28;96375;-61
2023/12/29 13:23:58;;;;;;;;;10.00;8.00;;;;;20.05;100.00;98408.28;6212341;28;97594;-62
2023/12/29 13:27:05;;;;;;;;;7.00;7.00;;;;;19.89;100.00;98400.28;6205848;28;97015;-63
2023/12/29 13:30:12;;;;;;;;;6.80;6.80;;;;;19.90;100.00;98396.44;6210732;28;97738;-63
2023/12/29 13:33:26;;;;;;;;;8.00;8.00;;;;;19.95;100.00;98398.28;6210307;28;96458;-63
2023/12/29 13:36:36;;;;;;;;;6.80;6.80;;;;;19.78;100.00;98398.00;6216885;28;96319;-62
2023/12/29 13:39:46;;;;;;;;;7.20;7.00;;;;;19.54;100.00;98405.41;6219908;27;96598;-61
2023/12/29 13:42:52;;;;;;;;;8.00;6.40;;;;;19.39;100.00;98400.88;6209182;28;96406;-62
2023/12/29 13:45:57;;;;;;;;;7.00;6.00;;;;;19.26;100.00;98405.09;6173735;28;97707;-61
2023/12/29 13:49:01;;;;;;;;;6.00;5.00;;;;;19.05;100.00;98400.97;6209536;28;97278;-62
2023/12/29 13:52:04;;;;;;;;;9.00;8.00;;;;;18.79;100.00;98397.66;6191415;28;96384;-61
2023/12/29 13:55:08;;;;;;;;;6.00;5.00;;;;;18.63;100.00;98393.41;6191229;28;96478;-61
2023/12/29 13:58:12;;;;;;;;;5.00;5.00;;;;;18.48;100.00;98407.97;6228961;28;96535;-63
2023/12/29 14:01:17;;;;;;;;;6.00;6.00;;;;;18.37;100.00;98397.44;6219162;28;96726;-61
2023/12/29 14:04:20;;;;;;;;;4.80;4.00;;;;;18.02;100.00;98395.75;6213724;28;96345;-61
2023/12/29 14:07:26;;;;;;;;;6.00;6.00;;;;;18.00;100.00;98417.84;6220625;28;96593;-61
2023/12/29 14:10:32;;;;;;;;;5.00;5.00;;;;;17.74;100.00;98408.97;6220070;28;96410;-61
2023/12/29 14:13:36;;;;;;;;;4.80;4.80;;;;;17.47;100.00;98413.13;6228174;28;96291;-62